Double Branches, Georgia
Current Conditions -  °F | °C
As of 1:55 AM on Sunday 26 Oct 2014 (Local Time) from KHQU Reporting Station
Clear Clear  
Wind Chill: 53°   Ceiling: Unl
Heat Index: 53°   Visibility: 10mi
Dew Point: 53°   Wind: 3mph
Humidity: 100%   Direction: 300°WNW
Pressure: 29.99"   Gusts: NA
Location:  33.7816°N, 82.4511°W
Report Text: KHQU 260555Z AUTO 30003KT 10SM CLR 11/11 A2999 RMK AO1 T01140114 10150 20109 402450047
Loading
Personal Weather Stations






























Interactive Weather Map
Tropical Storm Tracking
New forecast layout! Learn more

10-Day Weather Forecast

Advertisements
Track Severe Weather on mobile